createdAt,value
2023-03-17T00:01:38.855Z,97819.38
2023-03-17T00:04:10.850Z,97818.69
2023-03-17T00:06:41.532Z,97811.84
2023-03-17T00:09:15.570Z,97815.88
2023-03-17T00:11:46.569Z,97812.31
2023-03-17T00:14:20.207Z,97798.97
2023-03-17T00:16:53.539Z,97800.53
2023-03-17T00:19:32.723Z,97798.66
2023-03-17T00:22:06.177Z,97795.25
2023-03-17T00:24:36.685Z,97800.84
2023-03-17T00:27:15.613Z,97800.53
2023-03-17T00:29:48.938Z,97794.03
2023-03-17T00:32:22.624Z,97801.41
2023-03-17T00:34:55.306Z,97794.91
2023-03-17T00:37:25.747Z,97812.34
2023-03-17T00:39:56.384Z,97816.28
2023-03-17T00:42:29.585Z,97797.03
2023-03-17T00:45:02.671Z,97784.63
2023-03-17T00:47:33.009Z,97779.69
2023-03-17T00:50:03.300Z,97790.78
2023-03-17T00:52:34.195Z,97773.78
2023-03-17T00:55:04.632Z,97761.44
2023-03-17T00:57:35.277Z,97768.00
2023-03-17T01:00:21.783Z,97765.16
2023-03-17T01:02:54.857Z,97766.25
2023-03-17T01:05:27.765Z,97758.69
2023-03-17T01:08:00.185Z,97762.69
2023-03-17T01:10:32.806Z,97756.50
2023-03-17T01:13:03.476Z,97746.72
2023-03-17T01:15:37.771Z,97742.34
2023-03-17T01:18:09.013Z,97731.03
2023-03-17T01:20:39.121Z,97727.91
2023-03-17T01:23:09.761Z,97718.78
2023-03-17T01:25:42.808Z,97717.75
2023-03-17T01:28:18.074Z,97718.00
2023-03-17T01:30:52.548Z,97716.03
2023-03-17T01:33:22.854Z,97722.78
2023-03-17T01:35:54.120Z,97717.75
2023-03-17T01:38:24.698Z,97715.50
2023-03-17T01:40:56.856Z,97717.34
2023-03-17T01:43:30.896Z,97711.28
2023-03-17T01:46:32.708Z,97697.41
2023-03-17T01:49:13.362Z,97703.59
2023-03-17T01:51:53.089Z,97706.34
2023-03-17T01:54:29.711Z,97698.41
2023-03-17T01:57:04.924Z,97690.16
2023-03-17T01:59:41.226Z,97696.97
2023-03-17T02:02:20.106Z,97691.97
2023-03-17T02:04:50.621Z,97692.69
2023-03-17T02:07:22.400Z,97692.34
2023-03-17T02:09:53.744Z,97685.25
2023-03-17T02:12:25.424Z,97686.25
2023-03-17T02:14:56.150Z,97685.88
2023-03-17T02:17:31.172Z,97687.56
2023-03-17T02:20:32.833Z,97681.59
2023-03-17T02:23:07.079Z,97687.19
2023-03-17T02:25:39.977Z,97683.47
2023-03-17T02:28:14.283Z,97679.69
2023-03-17T02:30:45.876Z,97672.50
2023-03-17T02:33:19.085Z,97666.56
2023-03-17T02:35:51.244Z,97668.25
2023-03-17T02:38:24.182Z,97668.81
2023-03-17T02:40:54.769Z,97673.28
2023-03-17T02:43:25.675Z,97657.75
2023-03-17T02:45:59.935Z,97656.19
2023-03-17T02:48:30.700Z,97659.09
2023-03-17T02:51:01.093Z,97656.91
2023-03-17T02:53:34.424Z,97657.59
2023-03-17T02:56:05.080Z,97659.53
2023-03-17T02:58:35.816Z,97659.84
2023-03-17T03:01:06.432Z,97658.31
2023-03-17T03:03:37.240Z,97656.50
2023-03-17T03:06:08.800Z,97646.53
2023-03-17T03:08:41.757Z,97653.66
2023-03-17T03:11:12.253Z,97641.72
2023-03-17T03:13:42.615Z,97650.47
2023-03-17T03:16:13.163Z,97658.41
2023-03-17T03:18:43.983Z,97662.38
2023-03-17T03:21:15.531Z,97650.53
2023-03-17T03:23:48.631Z,97655.69
2023-03-17T03:26:19.439Z,97653.13
2023-03-17T03:28:49.899Z,97655.31
2023-03-17T03:31:20.469Z,97670.03
2023-03-17T03:33:50.906Z,97663.03
2023-03-17T03:36:23.551Z,97673.91
2023-03-17T03:38:56.663Z,97659.94
2023-03-17T03:41:27.390Z,97666.06
2023-03-17T03:43:57.710Z,97666.41
2023-03-17T03:46:28.651Z,97665.84
2023-03-17T03:48:59.070Z,97651.31
2023-03-17T03:51:29.489Z,97655.75
2023-03-17T03:54:02.454Z,97651.13
2023-03-17T03:56:32.855Z,97653.31
2023-03-17T03:59:03.169Z,97641.53
2023-03-17T04:01:33.555Z,97639.56
2023-03-17T04:04:03.812Z,97644.19
2023-03-17T04:06:34.151Z,97640.47
2023-03-17T04:09:10.271Z,97644.56
2023-03-17T04:11:40.503Z,97657.38
2023-03-17T04:14:10.772Z,97656.94
2023-03-17T04:16:43.302Z,97651.13
2023-03-17T04:19:14.034Z,97665.78
2023-03-17T04:21:44.469Z,97653.53
2023-03-17T04:24:18.871Z,97655.53
2023-03-17T04:26:49.172Z,97647.75
2023-03-17T04:29:20.209Z,97653.09
2023-03-17T04:31:50.936Z,97643.31
2023-03-17T04:34:23.147Z,97641.91
2023-03-17T04:36:54.127Z,97627.78
2023-03-17T04:39:27.668Z,97622.00
2023-03-17T04:41:58.065Z,97616.94
2023-03-17T04:44:28.439Z,97607.91
2023-03-17T04:46:58.751Z,97603.81
2023-03-17T04:49:29.083Z,97594.03
2023-03-17T04:51:59.498Z,97592.19
2023-03-17T04:54:32.475Z,97587.84
2023-03-17T04:57:02.882Z,97603.56
2023-03-17T04:59:33.220Z,97596.00
2023-03-17T05:02:03.612Z,97605.00
2023-03-17T05:04:34.053Z,97595.34
2023-03-17T05:07:04.850Z,97599.72
2023-03-17T05:09:40.361Z,97617.50
2023-03-17T05:12:12.787Z,97614.22
2023-03-17T05:14:43.131Z,97618.72
2023-03-17T05:17:13.993Z,97616.19
2023-03-17T05:19:44.956Z,97618.72
2023-03-17T05:22:15.694Z,97625.09
2023-03-17T05:24:48.839Z,97630.91
2023-03-17T05:27:19.145Z,97634.22
2023-03-17T05:29:49.901Z,97636.41
2023-03-17T05:32:21.127Z,97632.13
2023-03-17T05:34:52.134Z,97625.41
2023-03-17T05:37:22.760Z,97637.19
2023-03-17T05:39:55.812Z,97629.50
2023-03-17T05:42:26.412Z,97634.88
2023-03-17T05:44:56.774Z,97634.00
2023-03-17T05:47:27.027Z,97631.03
2023-03-17T05:49:57.336Z,97629.06
2023-03-17T05:52:28.198Z,97624.88
2023-03-17T05:55:01.253Z,97630.94
2023-03-17T05:57:31.608Z,97632.59
2023-03-17T06:00:02.576Z,97630.03
2023-03-17T06:02:35.523Z,97630.69
2023-03-17T06:05:06.387Z,97660.78
2023-03-17T06:07:50.938Z,97632.94
2023-03-17T06:10:27.265Z,97636.91
2023-03-17T06:12:59.035Z,97648.16
2023-03-17T06:15:30.107Z,97631.88
2023-03-17T06:18:00.360Z,97644.63
2023-03-17T06:20:31.658Z,97633.09
2023-03-17T06:23:05.312Z,97629.31
2023-03-17T06:25:39.438Z,97634.13
2023-03-17T06:28:10.311Z,97625.31
2023-03-17T06:30:41.068Z,97634.22
2023-03-17T06:33:12.042Z,97638.47
2023-03-17T06:35:42.605Z,97655.50
2023-03-17T06:38:13.586Z,97652.03
2023-03-17T06:40:46.760Z,97636.56
2023-03-17T06:43:17.630Z,97627.09
2023-03-17T06:45:47.991Z,97623.78
2023-03-17T06:48:18.281Z,97627.47
2023-03-17T06:50:50.320Z,97624.13
2023-03-17T06:53:20.924Z,97620.09
2023-03-17T06:55:54.063Z,97614.88
2023-03-17T06:58:24.995Z,97618.41
2023-03-17T07:00:56.219Z,97620.16
2023-03-17T07:03:26.695Z,97614.97
2023-03-17T07:05:57.748Z,97617.78
2023-03-17T07:08:30.809Z,97607.84
2023-03-17T07:11:04.718Z,97597.41
2023-03-17T07:13:37.350Z,97594.03
2023-03-17T07:16:09.571Z,97583.09
2023-03-17T07:18:39.911Z,97587.63
2023-03-17T07:21:10.391Z,97600.09
2023-03-17T07:23:40.778Z,97602.66
2023-03-17T07:26:13.990Z,97604.28
2023-03-17T07:28:44.771Z,97584.03
2023-03-17T07:31:15.211Z,97600.97
2023-03-17T07:33:45.561Z,97606.88
2023-03-17T07:36:15.979Z,97615.25
2023-03-17T07:38:46.767Z,97607.34
2023-03-17T07:41:19.805Z,97617.03
2023-03-17T07:43:50.190Z,97607.97
2023-03-17T07:46:20.975Z,97601.84
2023-03-17T07:48:54.366Z,97602.16
2023-03-17T07:51:28.175Z,97598.47
2023-03-17T07:54:03.996Z,97595.09
2023-03-17T07:56:37.109Z,97591.84
2023-03-17T07:59:07.755Z,97593.06
2023-03-17T08:01:38.728Z,97587.50
2023-03-17T08:04:10.925Z,97591.47
2023-03-17T08:06:41.893Z,97586.16
2023-03-17T08:09:12.866Z,97590.47
2023-03-17T08:11:46.053Z,97579.16
2023-03-17T08:14:16.767Z,97573.84
2023-03-17T08:16:47.612Z,97576.00
2023-03-17T08:19:18.074Z,97571.97
2023-03-17T08:21:48.459Z,97566.41
2023-03-17T08:24:18.869Z,97569.88
2023-03-17T08:26:54.216Z,97572.63
2023-03-17T08:29:24.890Z,97559.19
2023-03-17T08:31:55.394Z,97560.69
2023-03-17T08:34:26.434Z,97570.38
2023-03-17T08:36:56.838Z,97561.03
2023-03-17T08:39:27.360Z,97549.63
2023-03-17T08:42:00.381Z,97556.19
2023-03-17T08:44:30.764Z,97555.81
2023-03-17T08:47:01.682Z,97550.53
2023-03-17T08:49:34.842Z,97550.19
2023-03-17T08:52:05.578Z,97550.72
2023-03-17T08:54:37.556Z,97555.50
2023-03-17T08:57:10.609Z,97566.19
2023-03-17T08:59:41.357Z,97558.53
2023-03-17T09:02:15.049Z,97574.91
2023-03-17T09:04:45.632Z,97549.28
2023-03-17T09:07:17.176Z,97541.09
2023-03-17T09:09:47.852Z,97535.75
2023-03-17T09:12:20.878Z,97532.56
2023-03-17T09:14:51.713Z,97534.06
2023-03-17T09:17:22.052Z,97542.53
2023-03-17T09:19:52.720Z,97551.22
2023-03-17T09:22:23.393Z,97548.34
2023-03-17T09:24:54.087Z,97544.75
2023-03-17T09:27:27.644Z,97552.97
2023-03-17T09:29:58.080Z,97558.41
2023-03-17T09:32:28.715Z,97564.88
2023-03-17T09:35:01.111Z,97559.78
2023-03-17T09:37:31.471Z,97561.44
2023-03-17T09:40:01.548Z,97555.34
2023-03-17T09:42:50.600Z,97560.13
2023-03-17T09:45:34.689Z,97550.38
2023-03-17T09:48:51.042Z,97552.38
2023-03-17T09:51:22.543Z,97555.41
2023-03-17T09:53:59.987Z,97563.44
2023-03-17T09:56:32.495Z,97545.81
2023-03-17T09:59:10.801Z,97543.63
2023-03-17T10:01:45.438Z,97548.78
2023-03-17T10:04:18.919Z,97549.78
2023-03-17T10:06:50.363Z,97543.00
2023-03-17T10:09:28.007Z,97547.44
2023-03-17T10:12:11.433Z,97550.38
2023-03-17T10:14:54.714Z,97556.06
2023-03-17T10:17:29.196Z,97555.84
2023-03-17T10:20:05.100Z,97557.53
2023-03-17T10:22:43.096Z,97548.03
2023-03-17T10:25:19.162Z,97555.88
2023-03-17T10:27:56.048Z,97546.84
2023-03-17T10:30:30.112Z,97540.69
2023-03-17T10:33:07.087Z,97541.50
2023-03-17T10:35:39.662Z,97537.88
2023-03-17T10:38:19.607Z,97530.94
2023-03-17T10:40:58.953Z,97539.69
2023-03-17T10:43:35.647Z,97548.94
2023-03-17T10:46:17.229Z,97545.44
2023-03-17T10:48:55.374Z,97551.50
2023-03-17T10:51:37.052Z,97541.53
2023-03-17T10:54:13.534Z,97537.63
2023-03-17T10:56:45.463Z,97549.44
2023-03-17T11:02:04.535Z,97551.06
2023-03-17T11:04:38.744Z,97549.91
2023-03-17T11:07:13.008Z,97539.09
2023-03-17T11:09:43.317Z,97530.13
2023-03-17T11:12:29.504Z,97536.69
2023-03-17T11:15:05.006Z,97530.69
2023-03-17T11:17:46.829Z,97535.28
2023-03-17T11:20:45.470Z,97528.84
2023-03-17T11:23:29.180Z,97510.66
2023-03-17T11:26:14.849Z,97514.44
2023-03-17T11:28:53.540Z,97517.00
2023-03-17T11:31:33.667Z,97510.25
2023-03-17T11:34:12.124Z,97505.38
2023-03-17T11:36:54.514Z,97500.94
2023-03-17T11:39:31.427Z,97513.16
2023-03-17T11:42:11.588Z,97506.72
2023-03-17T11:45:13.014Z,97519.88
2023-03-17T11:48:09.841Z,97492.56
2023-03-17T11:50:55.172Z,97490.47
2023-03-17T11:53:47.976Z,97484.22
2023-03-17T11:56:24.201Z,97474.78
2023-03-17T11:59:03.402Z,97477.13
2023-03-17T12:01:51.362Z,97463.97
2023-03-17T12:04:30.856Z,97465.31
2023-03-17T12:07:14.049Z,97460.28
2023-03-17T12:09:49.316Z,97439.63
2023-03-17T12:12:29.520Z,97438.38
2023-03-17T12:15:02.220Z,97432.97
2023-03-17T12:17:39.625Z,97440.78
2023-03-17T12:20:19.080Z,97434.81
2023-03-17T12:22:59.068Z,97432.84
2023-03-17T12:25:35.598Z,97434.22
2023-03-17T12:28:14.024Z,97435.75
2023-03-17T12:30:52.469Z,97438.38
2023-03-17T12:33:31.428Z,97440.66
2023-03-17T12:36:02.802Z,97427.31
2023-03-17T12:38:43.391Z,97430.09
2023-03-17T12:41:40.506Z,97421.44
2023-03-17T12:44:32.041Z,97422.72
2023-03-17T12:47:46.739Z,97422.38
2023-03-17T12:51:08.477Z,97424.78
2023-03-17T12:53:44.877Z,97420.03
2023-03-17T12:56:23.729Z,97426.34
2023-03-17T12:58:56.189Z,97436.50
2023-03-17T13:01:35.072Z,97421.97
2023-03-17T13:04:18.967Z,97415.97
2023-03-17T13:07:02.641Z,97423.31
2023-03-17T13:09:53.248Z,97413.72
2023-03-17T13:13:00.492Z,97409.56
2023-03-17T13:15:58.920Z,97401.09
2023-03-17T13:18:53.809Z,97406.69
2023-03-17T13:21:30.805Z,97405.34
2023-03-17T13:24:26.294Z,97400.63
2023-03-17T13:27:02.068Z,97396.97
2023-03-17T13:29:48.792Z,97394.28
2023-03-17T13:32:38.282Z,97391.38
2023-03-17T13:35:30.744Z,97386.13
2023-03-17T13:38:40.332Z,97388.19
2023-03-17T13:41:35.136Z,97389.47
2023-03-17T13:44:29.165Z,97400.09
2023-03-17T13:47:19.898Z,97404.81
2023-03-17T13:49:53.018Z,97401.28
2023-03-17T13:52:33.280Z,97407.66
2023-03-17T13:55:33.005Z,97395.28
2023-03-17T13:58:28.965Z,97405.81
2023-03-17T14:01:09.832Z,97402.13
2023-03-17T14:03:49.235Z,97400.44
2023-03-17T14:06:23.101Z,97398.88
2023-03-17T14:08:57.966Z,97392.09
2023-03-17T14:11:35.587Z,97405.78
2023-03-17T14:14:32.583Z,97395.75
2023-03-17T14:17:15.050Z,97393.91
2023-03-17T14:20:06.422Z,97383.31
2023-03-17T14:22:45.263Z,97391.19
2023-03-17T14:25:21.193Z,97390.00
2023-03-17T14:27:56.374Z,97377.38
2023-03-17T14:30:29.761Z,97380.13
2023-03-17T14:33:08.383Z,97380.00
2023-03-17T14:35:43.337Z,97394.91
2023-03-17T14:38:23.013Z,97384.34
2023-03-17T14:41:02.987Z,97389.09
2023-03-17T14:43:34.560Z,97373.50
2023-03-17T14:46:07.727Z,97392.41
2023-03-17T14:48:44.693Z,97377.28
2023-03-17T14:51:29.146Z,97391.69
2023-03-17T14:54:04.472Z,97387.16
2023-03-17T14:56:40.422Z,97384.91
2023-03-17T14:59:21.901Z,97382.81
2023-03-17T15:01:57.847Z,97381.75
2023-03-17T15:04:35.538Z,97377.00
2023-03-17T15:07:08.697Z,97383.88
2023-03-17T15:09:43.506Z,97379.03
2023-03-17T15:12:21.212Z,97385.00
2023-03-17T15:14:56.451Z,97377.66
2023-03-17T15:17:32.159Z,97372.56
2023-03-17T15:20:09.207Z,97376.84
2023-03-17T15:22:46.118Z,97377.41
2023-03-17T15:25:29.288Z,97374.13
2023-03-17T15:27:59.641Z,97382.25
2023-03-17T15:30:44.282Z,97393.63
2023-03-17T15:33:25.822Z,97383.75
2023-03-17T15:36:00.248Z,97372.56
2023-03-17T15:38:31.557Z,97386.22
2023-03-17T15:41:02.120Z,97376.84
2023-03-17T15:43:32.473Z,97382.91
2023-03-17T15:46:07.105Z,97374.88
2023-03-17T15:48:39.094Z,97390.59
2023-03-17T15:51:13.973Z,97369.03
2023-03-17T15:53:44.344Z,97383.44
2023-03-17T15:56:20.770Z,97362.44
2023-03-17T15:58:52.584Z,97367.25
2023-03-17T16:01:26.506Z,97367.06
2023-03-17T16:03:58.250Z,97372.91
2023-03-17T16:06:31.460Z,97371.44
2023-03-17T16:09:01.876Z,97362.81
2023-03-17T16:11:34.601Z,97368.38
2023-03-17T16:14:05.019Z,97357.75
2023-03-17T16:16:40.901Z,97354.72
2023-03-17T16:19:17.841Z,97346.84
2023-03-17T16:21:50.909Z,97347.59
2023-03-17T16:24:23.295Z,97346.84
2023-03-17T16:26:53.781Z,97347.88
2023-03-17T16:29:24.774Z,97356.44
2023-03-17T16:31:54.961Z,97350.56
2023-03-17T16:34:26.836Z,97354.59
2023-03-17T16:36:59.886Z,97350.06
2023-03-17T16:39:30.279Z,97360.41
2023-03-17T16:42:00.796Z,97349.00
2023-03-17T16:44:31.576Z,97346.25
2023-03-17T16:47:02.125Z,97347.03
2023-03-17T16:49:32.655Z,97352.84
2023-03-17T16:52:05.820Z,97354.56
2023-03-17T16:54:36.476Z,97345.69
2023-03-17T16:57:08.115Z,97341.38
2023-03-17T16:59:38.674Z,97345.66
2023-03-17T17:02:18.621Z,97348.13
2023-03-17T17:04:49.128Z,97353.03
2023-03-17T17:07:22.272Z,97353.50
2023-03-17T17:09:52.624Z,97356.84
2023-03-17T17:12:22.974Z,97356.78
2023-03-17T17:14:53.348Z,97350.00
2023-03-17T17:17:23.844Z,97355.56
2023-03-17T17:19:54.252Z,97338.44
2023-03-17T17:22:27.333Z,97349.81
2023-03-17T17:24:57.831Z,97347.03
2023-03-17T17:27:28.286Z,97344.50
2023-03-17T17:29:58.749Z,97347.16
2023-03-17T17:32:29.477Z,97338.28
2023-03-17T17:34:59.951Z,97334.50
2023-03-17T17:37:33.365Z,97339.56
2023-03-17T17:40:03.933Z,97337.59
2023-03-17T17:42:34.601Z,97333.81
2023-03-17T17:45:05.060Z,97343.97
2023-03-17T17:47:35.705Z,97334.88
2023-03-17T17:50:06.999Z,97335.13
2023-03-17T17:52:40.244Z,97333.38
2023-03-17T17:55:11.599Z,97327.03
2023-03-17T17:57:42.022Z,97323.75
2023-03-17T18:00:18.790Z,97335.50
2023-03-17T18:02:49.259Z,97339.00
2023-03-17T18:05:19.941Z,97327.09
2023-03-17T18:07:53.258Z,97322.25
2023-03-17T18:10:26.855Z,97329.09
2023-03-17T18:12:57.612Z,97334.84
2023-03-17T18:15:29.734Z,97323.00
2023-03-17T18:18:00.139Z,97330.47
2023-03-17T18:20:31.543Z,97327.31
2023-03-17T18:23:04.826Z,97329.41
2023-03-17T18:25:36.072Z,97334.72
2023-03-17T18:28:06.591Z,97338.72
2023-03-17T18:30:37.608Z,97337.69
2023-03-17T18:33:12.298Z,97337.38
2023-03-17T18:35:43.433Z,97348.63
2023-03-17T18:38:16.643Z,97335.34
2023-03-17T18:40:47.840Z,97337.81
2023-03-17T18:43:18.213Z,97342.66
2023-03-17T18:45:48.697Z,97339.78
2023-03-17T18:48:19.469Z,97337.25
2023-03-17T18:50:50.869Z,97336.72
2023-03-17T18:53:23.879Z,97328.31
2023-03-17T18:55:54.372Z,97326.88
2023-03-17T18:58:24.780Z,97324.66
2023-03-17T19:00:55.872Z,97320.22
2023-03-17T19:03:26.758Z,97322.22
2023-03-17T19:05:58.114Z,97316.00
2023-03-17T19:08:31.256Z,97311.84
2023-03-17T19:11:01.804Z,97318.63
2023-03-17T19:13:34.650Z,97321.69
2023-03-17T19:16:38.012Z,97316.69
2023-03-17T19:19:42.934Z,97305.06
2023-03-17T19:22:20.733Z,97305.78
2023-03-17T19:24:57.654Z,97301.78
2023-03-17T19:27:28.721Z,97297.22
2023-03-17T19:30:08.366Z,97293.88
2023-03-17T19:32:39.420Z,97286.59
2023-03-17T19:35:23.266Z,97284.25
2023-03-17T19:38:17.934Z,97293.81
2023-03-17T19:40:54.912Z,97292.97
2023-03-17T19:43:40.325Z,97282.75
2023-03-17T19:46:21.462Z,97294.38
2023-03-17T19:48:53.682Z,97290.97
2023-03-17T19:51:26.081Z,97286.50
2023-03-17T19:53:57.130Z,97296.34
2023-03-17T19:56:30.333Z,97291.75
2023-03-17T19:59:00.750Z,97303.81
2023-03-17T20:01:32.260Z,97304.38
2023-03-17T20:04:11.372Z,97312.56
2023-03-17T20:06:58.223Z,97316.28
2023-03-17T20:09:39.786Z,97310.03
2023-03-17T20:12:16.232Z,97319.94
2023-03-17T20:14:51.828Z,97318.09
2023-03-17T20:17:22.560Z,97310.50
2023-03-17T20:19:54.149Z,97315.16
2023-03-17T20:22:27.330Z,97313.63
2023-03-17T20:24:58.271Z,97317.53
2023-03-17T20:27:32.309Z,97319.22
2023-03-17T20:30:17.618Z,97321.16
2023-03-17T20:32:49.747Z,97308.78
2023-03-17T20:35:23.237Z,97307.25
2023-03-17T20:37:57.034Z,97305.47
2023-03-17T20:40:27.731Z,97310.25
2023-03-17T20:43:01.094Z,97317.03
2023-03-17T20:45:32.069Z,97320.69
2023-03-17T20:48:03.594Z,97317.91
2023-03-17T20:50:34.524Z,97308.88
2023-03-17T20:53:05.126Z,97313.38
2023-03-17T20:55:37.655Z,97317.66
2023-03-17T20:58:11.753Z,97311.44
2023-03-17T21:00:42.218Z,97317.13
2023-03-17T21:03:12.890Z,97311.59
2023-03-17T21:05:43.655Z,97306.28
2023-03-17T21:08:14.332Z,97309.53
2023-03-17T21:10:44.886Z,97317.13
2023-03-17T21:13:18.204Z,97313.53
2023-03-17T21:15:48.906Z,97303.41
2023-03-17T21:18:19.553Z,97309.34
2023-03-17T21:20:50.133Z,97317.47
2023-03-17T21:23:20.575Z,97310.34
2023-03-17T21:25:51.033Z,97311.22
2023-03-17T21:28:24.247Z,97314.47
2023-03-17T21:30:57.689Z,97293.09
2023-03-17T21:33:28.033Z,97298.16
2023-03-17T21:35:58.975Z,97298.69
2023-03-17T21:38:31.210Z,97299.63
2023-03-17T21:41:02.490Z,97322.00
2023-03-17T21:43:35.522Z,97302.78
2023-03-17T21:46:05.987Z,97316.94
2023-03-17T21:48:37.642Z,97307.63
2023-03-17T21:51:08.732Z,97302.31
2023-03-17T21:53:38.801Z,97290.25
2023-03-17T21:56:12.354Z,97296.72
2023-03-17T21:58:46.148Z,97292.63
2023-03-17T22:01:17.495Z,97300.94
2023-03-17T22:03:48.077Z,97305.97
2023-03-17T22:06:19.759Z,97302.25
2023-03-17T22:08:51.900Z,97296.63
2023-03-17T22:11:22.941Z,97297.53
2023-03-17T22:13:55.945Z,97294.44
2023-03-17T22:16:26.629Z,97303.69
2023-03-17T22:18:57.327Z,97294.44
2023-03-17T22:21:29.121Z,97296.34
2023-03-17T22:24:02.424Z,97300.63
2023-03-17T22:26:32.811Z,97300.91
2023-03-17T22:29:07.854Z,97296.25
2023-03-17T22:31:38.315Z,97294.94
2023-03-17T22:34:10.063Z,97298.94
2023-03-17T22:36:41.296Z,97306.16
2023-03-17T22:39:12.781Z,97313.22
2023-03-17T22:41:43.186Z,97305.94
2023-03-17T22:44:16.185Z,97310.22
2023-03-17T22:46:46.620Z,97305.56
2023-03-17T22:49:17.104Z,97305.69
2023-03-17T22:51:48.355Z,97301.88
2023-03-17T22:54:18.834Z,97303.59
2023-03-17T22:56:49.446Z,97294.72
2023-03-17T22:59:22.525Z,97302.78
2023-03-17T23:01:52.908Z,97297.00
2023-03-17T23:04:23.333Z,97306.06
2023-03-17T23:06:54.059Z,97293.00
2023-03-17T23:09:24.705Z,97291.66
2023-03-17T23:11:55.210Z,97298.91
2023-03-17T23:14:28.422Z,97293.09
2023-03-17T23:16:58.838Z,97304.63
2023-03-17T23:19:31.930Z,97306.16
2023-03-17T23:22:02.366Z,97298.38
2023-03-17T23:24:33.493Z,97309.06
2023-03-17T23:27:03.882Z,97308.28
2023-03-17T23:29:36.856Z,97302.56
2023-03-17T23:32:08.449Z,97316.38
2023-03-17T23:34:39.748Z,97311.34
2023-03-17T23:37:10.557Z,97317.44
2023-03-17T23:39:41.444Z,97323.53
2023-03-17T23:42:12.349Z,97316.13
2023-03-17T23:44:45.485Z,97310.38
2023-03-17T23:47:17.002Z,97323.16
2023-03-17T23:49:47.377Z,97314.38
2023-03-17T23:52:18.428Z,97323.91
2023-03-17T23:54:48.533Z,97313.66
2023-03-17T23:57:19.535Z,97309.06
2023-03-17T23:59:52.488Z,97310.22
